sensor_id;sensor_type;location;lat;lon;timestamp;P1;durP1;ratioP1;P2;durP2;ratioP2
20857;SDS011;10589;53.636;10.012;2023-07-29T03:47:34;13.98;;;11.73;;
20857;SDS011;10589;53.636;10.012;2023-07-29T03:50:00;15.60;;;11.85;;
20857;SDS011;10589;53.636;10.012;2023-07-29T03:52:26;14.13;;;12.23;;
20857;SDS011;10589;53.636;10.012;2023-07-29T03:54:52;12.38;;;11.10;;
20857;SDS011;10589;53.636;10.012;2023-07-29T03:57:17;12.93;;;11.60;;
20857;SDS011;10589;53.636;10.012;2023-07-29T03:59:43;14.18;;;10.70;;
20857;SDS011;10589;53.636;10.012;2023-07-29T04:02:09;12.98;;;11.45;;
20857;SDS011;10589;53.636;10.012;2023-07-29T04:04:34;19.25;;;15.32;;
20857;SDS011;10589;53.636;10.012;2023-07-29T04:07:00;16.13;;;13.25;;
20857;SDS011;10589;53.636;10.012;2023-07-29T04:09:25;20.65;;;15.68;;
20857;SDS011;10589;53.636;10.012;2023-07-29T04:11:51;18.35;;;14.45;;
20857;SDS011;10589;53.636;10.012;2023-07-29T04:14:16;13.30;;;11.07;;
20857;SDS011;10589;53.636;10.012;2023-07-29T04:16:42;19.35;;;16.30;;
20857;SDS011;10589;53.636;10.012;2023-07-29T04:19:08;20.85;;;15.85;;
20857;SDS011;10589;53.636;10.012;2023-07-29T04:21:33;23.38;;;17.63;;
20857;SDS011;10589;53.636;10.012;2023-07-29T04:23:59;17.77;;;15.25;;
20857;SDS011;10589;53.636;10.012;2023-07-29T04:26:24;22.20;;;17.25;;
20857;SDS011;10589;53.636;10.012;2023-07-29T04:28:50;20.30;;;17.02;;
20857;SDS011;10589;53.636;10.012;2023-07-29T04:31:15;25.63;;;19.42;;
20857;SDS011;10589;53.636;10.012;2023-07-29T04:33:41;28.25;;;21.35;;
20857;SDS011;10589;53.636;10.012;2023-07-29T04:36:07;31.30;;;23.30;;
20857;SDS011;10589;53.636;10.012;2023-07-29T04:38:33;34.38;;;25.10;;
20857;SDS011;10589;53.636;10.012;2023-07-29T04:40:59;32.05;;;23.77;;
20857;SDS011;10589;53.636;10.012;2023-07-29T04:43:27;27.20;;;21.27;;
20857;SDS011;10589;53.636;10.012;2023-07-29T04:45:55;32.83;;;23.67;;
20857;SDS011;10589;53.636;10.012;2023-07-29T04:48:21;33.80;;;25.00;;
20857;SDS011;10589;53.636;10.012;2023-07-29T04:50:47;36.85;;;26.00;;
20857;SDS011;10589;53.636;10.012;2023-07-29T04:53:12;34.65;;;25.00;;
20857;SDS011;10589;53.636;10.012;2023-07-29T04:55:38;46.08;;;27.27;;
20857;SDS011;10589;53.636;10.012;2023-07-29T04:58:05;35.03;;;25.48;;
20857;SDS011;10589;53.636;10.012;2023-07-29T05:00:31;38.78;;;26.65;;
20857;SDS011;10589;53.636;10.012;2023-07-29T05:02:56;30.70;;;23.88;;
20857;SDS011;10589;53.636;10.012;2023-07-29T05:05:22;33.83;;;23.85;;
20857;SDS011;10589;53.636;10.012;2023-07-29T05:07:47;32.53;;;24.73;;
20857;SDS011;10589;53.636;10.012;2023-07-29T05:10:13;30.90;;;23.45;;
20857;SDS011;10589;53.636;10.012;2023-07-29T05:12:38;31.70;;;24.23;;
20857;SDS011;10589;53.636;10.012;2023-07-29T05:15:04;28.75;;;23.63;;
20857;SDS011;10589;53.636;10.012;2023-07-29T05:17:30;30.55;;;23.10;;
20857;SDS011;10589;53.636;10.012;2023-07-29T05:19:56;25.98;;;22.10;;
20857;SDS011;10589;53.636;10.012;2023-07-29T05:22:21;31.27;;;25.27;;
20857;SDS011;10589;53.636;10.012;2023-07-29T05:24:47;31.48;;;23.70;;
20857;SDS011;10589;53.636;10.012;2023-07-29T05:27:12;28.25;;;22.30;;
20857;SDS011;10589;53.636;10.012;2023-07-29T05:29:38;23.70;;;20.25;;
20857;SDS011;10589;53.636;10.012;2023-07-29T05:32:04;21.45;;;18.17;;
20857;SDS011;10589;53.636;10.012;2023-07-29T05:34:30;24.08;;;21.35;;
20857;SDS011;10589;53.636;10.012;2023-07-29T05:36:55;21.40;;;18.40;;
20857;SDS011;10589;53.636;10.012;2023-07-29T05:39:21;18.52;;;16.48;;
20857;SDS011;10589;53.636;10.012;2023-07-29T05:41:46;19.42;;;17.25;;
20857;SDS011;10589;53.636;10.012;2023-07-29T05:44:12;17.15;;;15.32;;
20857;SDS011;10589;53.636;10.012;2023-07-29T05:46:37;20.92;;;18.30;;
20857;SDS011;10589;53.636;10.012;2023-07-29T05:49:03;17.42;;;15.63;;
20857;SDS011;10589;53.636;10.012;2023-07-29T05:51:29;23.48;;;18.10;;
20857;SDS011;10589;53.636;10.012;2023-07-29T05:53:54;17.85;;;16.05;;
20857;SDS011;10589;53.636;10.012;2023-07-29T05:56:20;17.17;;;15.48;;
20857;SDS011;10589;53.636;10.012;2023-07-29T05:58:46;22.52;;;17.10;;
20857;SDS011;10589;53.636;10.012;2023-07-29T06:01:11;18.13;;;16.33;;
20857;SDS011;10589;53.636;10.012;2023-07-29T06:03:37;19.05;;;16.17;;
20857;SDS011;10589;53.636;10.012;2023-07-29T06:06:02;20.60;;;16.30;;
20857;SDS011;10589;53.636;10.012;2023-07-29T06:08:28;18.50;;;14.73;;
20857;SDS011;10589;53.636;10.012;2023-07-29T06:10:54;18.17;;;16.23;;
20857;SDS011;10589;53.636;10.012;2023-07-29T06:13:19;14.90;;;13.35;;
20857;SDS011;10589;53.636;10.012;2023-07-29T06:15:45;18.77;;;16.77;;
20857;SDS011;10589;53.636;10.012;2023-07-29T06:18:11;15.55;;;13.10;;
20857;SDS011;10589;53.636;10.012;2023-07-29T06:20:36;14.05;;;12.68;;
20857;SDS011;10589;53.636;10.012;2023-07-29T06:23:02;17.52;;;15.70;;
20857;SDS011;10589;53.636;10.012;2023-07-29T06:25:28;14.43;;;13.02;;
20857;SDS011;10589;53.636;10.012;2023-07-29T06:27:54;15.50;;;14.00;;
20857;SDS011;10589;53.636;10.012;2023-07-29T06:30:20;18.42;;;16.45;;
20857;SDS011;10589;53.636;10.012;2023-07-29T06:32:45;19.45;;;16.77;;
20857;SDS011;10589;53.636;10.012;2023-07-29T06:35:11;19.23;;;16.17;;
20857;SDS011;10589;53.636;10.012;2023-07-29T06:37:36;17.13;;;14.60;;
20857;SDS011;10589;53.636;10.012;2023-07-29T06:40:02;19.20;;;17.08;;
20857;SDS011;10589;53.636;10.012;2023-07-29T06:42:28;18.90;;;16.83;;
20857;SDS011;10589;53.636;10.012;2023-07-29T06:44:53;16.70;;;14.77;;
20857;SDS011;10589;53.636;10.012;2023-07-29T06:47:19;17.63;;;14.95;;
20857;SDS011;10589;53.636;10.012;2023-07-29T06:49:45;15.88;;;14.20;;
20857;SDS011;10589;53.636;10.012;2023-07-29T06:52:11;15.27;;;13.65;;
20857;SDS011;10589;53.636;10.012;2023-07-29T06:54:36;13.68;;;12.27;;
20857;SDS011;10589;53.636;10.012;2023-07-29T06:57:02;15.82;;;14.13;;
20857;SDS011;10589;53.636;10.012;2023-07-29T06:59:28;14.57;;;12.85;;
20857;SDS011;10589;53.636;10.012;2023-07-29T07:01:53;13.95;;;12.48;;
20857;SDS011;10589;53.636;10.012;2023-07-29T07:04:19;13.48;;;12.07;;
20857;SDS011;10589;53.636;10.012;2023-07-29T07:06:45;16.70;;;14.20;;
20857;SDS011;10589;53.636;10.012;2023-07-29T07:09:10;16.75;;;14.57;;
20857;SDS011;10589;53.636;10.012;2023-07-29T07:11:36;18.60;;;16.70;;
20857;SDS011;10589;53.636;10.012;2023-07-29T07:14:02;15.23;;;13.73;;
20857;SDS011;10589;53.636;10.012;2023-07-29T07:16:27;17.95;;;15.05;;
20857;SDS011;10589;53.636;10.012;2023-07-29T07:18:55;20.10;;;17.13;;
20857;SDS011;10589;53.636;10.012;2023-07-29T07:21:21;20.33;;;18.13;;
20857;SDS011;10589;53.636;10.012;2023-07-29T07:23:48;18.70;;;16.75;;
20857;SDS011;10589;53.636;10.012;2023-07-29T07:26:15;15.95;;;14.35;;
20857;SDS011;10589;53.636;10.012;2023-07-29T07:28:40;18.23;;;16.17;;
20857;SDS011;10589;53.636;10.012;2023-07-29T07:31:06;16.60;;;14.50;;
20857;SDS011;10589;53.636;10.012;2023-07-29T07:33:31;19.83;;;16.80;;
20857;SDS011;10589;53.636;10.012;2023-07-29T07:35:57;20.27;;;17.40;;
20857;SDS011;10589;53.636;10.012;2023-07-29T07:38:23;21.17;;;17.90;;
20857;SDS011;10589;53.636;10.012;2023-07-29T07:40:55;20.75;;;18.55;;
20857;SDS011;10589;53.636;10.012;2023-07-29T07:43:21;25.17;;;22.23;;
20857;SDS011;10589;53.636;10.012;2023-07-29T07:45:48;23.25;;;20.75;;
20857;SDS011;10589;53.636;10.012;2023-07-29T07:48:13;21.05;;;18.75;;
20857;SDS011;10589;53.636;10.012;2023-07-29T07:50:39;23.58;;;20.42;;
20857;SDS011;10589;53.636;10.012;2023-07-29T07:53:05;19.75;;;17.65;;
20857;SDS011;10589;53.636;10.012;2023-07-29T07:55:30;22.67;;;18.77;;
20857;SDS011;10589;53.636;10.012;2023-07-29T07:57:56;27.65;;;20.42;;
20857;SDS011;10589;53.636;10.012;2023-07-29T08:00:21;23.15;;;18.92;;
20857;SDS011;10589;53.636;10.012;2023-07-29T08:02:47;21.25;;;18.85;;
20857;SDS011;10589;53.636;10.012;2023-07-29T08:05:12;22.67;;;20.05;;
20857;SDS011;10589;53.636;10.012;2023-07-29T08:07:38;24.85;;;21.17;;
20857;SDS011;10589;53.636;10.012;2023-07-29T08:10:04;29.95;;;21.48;;
20857;SDS011;10589;53.636;10.012;2023-07-29T08:12:30;25.13;;;21.08;;
20857;SDS011;10589;53.636;10.012;2023-07-29T08:14:56;23.27;;;19.67;;
20857;SDS011;10589;53.636;10.012;2023-07-29T08:17:21;23.63;;;20.40;;
20857;SDS011;10589;53.636;10.012;2023-07-29T08:19:47;22.20;;;18.77;;
20857;SDS011;10589;53.636;10.012;2023-07-29T08:22:13;21.42;;;17.98;;
20857;SDS011;10589;53.636;10.012;2023-07-29T08:24:38;22.45;;;17.63;;
20857;SDS011;10589;53.636;10.012;2023-07-29T08:27:04;23.13;;;18.95;;
20857;SDS011;10589;53.636;10.012;2023-07-29T08:29:30;24.08;;;19.75;;
20857;SDS011;10589;53.636;10.012;2023-07-29T08:31:55;21.85;;;18.90;;
20857;SDS011;10589;53.636;10.012;2023-07-29T08:34:21;23.02;;;19.23;;
20857;SDS011;10589;53.636;10.012;2023-07-29T08:36:46;26.40;;;21.23;;
20857;SDS011;10589;53.636;10.012;2023-07-29T08:39:12;27.55;;;21.00;;
20857;SDS011;10589;53.636;10.012;2023-07-29T08:41:41;28.40;;;22.13;;
20857;SDS011;10589;53.636;10.012;2023-07-29T08:44:18;25.33;;;20.85;;
20857;SDS011;10589;53.636;10.012;2023-07-29T08:46:47;25.52;;;20.42;;
20857;SDS011;10589;53.636;10.012;2023-07-29T08:49:13;27.60;;;21.33;;
20857;SDS011;10589;53.636;10.012;2023-07-29T08:51:41;25.23;;;21.45;;
20857;SDS011;10589;53.636;10.012;2023-07-29T08:54:07;23.33;;;19.73;;
20857;SDS011;10589;53.636;10.012;2023-07-29T08:56:35;20.40;;;18.38;;
20857;SDS011;10589;53.636;10.012;2023-07-29T08:59:01;20.65;;;18.42;;
20857;SDS011;10589;53.636;10.012;2023-07-29T09:01:28;23.50;;;19.08;;
20857;SDS011;10589;53.636;10.012;2023-07-29T09:03:55;22.15;;;18.33;;
20857;SDS011;10589;53.636;10.012;2023-07-29T09:06:21;18.65;;;16.73;;
20857;SDS011;10589;53.636;10.012;2023-07-29T09:08:49;19.10;;;17.00;;
20857;SDS011;10589;53.636;10.012;2023-07-29T09:11:16;18.73;;;16.75;;
20857;SDS011;10589;53.636;10.012;2023-07-29T09:13:42;19.75;;;17.65;;
20857;SDS011;10589;53.636;10.012;2023-07-29T09:16:09;18.70;;;15.50;;
20857;SDS011;10589;53.636;10.012;2023-07-29T09:18:35;20.52;;;17.20;;
20857;SDS011;10589;53.636;10.012;2023-07-29T09:21:01;17.33;;;14.60;;
20857;SDS011;10589;53.636;10.012;2023-07-29T09:23:26;15.80;;;13.80;;
20857;SDS011;10589;53.636;10.012;2023-07-29T09:26:00;16.67;;;14.95;;
20857;SDS011;10589;53.636;10.012;2023-07-29T09:28:27;15.77;;;14.18;;
20857;SDS011;10589;53.636;10.012;2023-07-29T09:31:01;13.85;;;12.45;;
20857;SDS011;10589;53.636;10.012;2023-07-29T09:33:27;12.90;;;11.70;;
20857;SDS011;10589;53.636;10.012;2023-07-29T09:35:53;17.25;;;14.10;;
20857;SDS011;10589;53.636;10.012;2023-07-29T09:38:25;13.23;;;11.82;;
20857;SDS011;10589;53.636;10.012;2023-07-29T09:40:55;12.90;;;11.55;;
20857;SDS011;10589;53.636;10.012;2023-07-29T09:43:26;14.07;;;12.48;;
20857;SDS011;10589;53.636;10.012;2023-07-29T09:45:55;13.55;;;12.10;;
20857;SDS011;10589;53.636;10.012;2023-07-29T09:48:32;15.73;;;12.98;;
20857;SDS011;10589;53.636;10.012;2023-07-29T09:50:59;11.75;;;10.65;;
20857;SDS011;10589;53.636;10.012;2023-07-29T09:53:24;14.10;;;12.60;;
20857;SDS011;10589;53.636;10.012;2023-07-29T09:55:52;14.05;;;12.18;;
20857;SDS011;10589;53.636;10.012;2023-07-29T09:58:27;12.95;;;10.57;;
20857;SDS011;10589;53.636;10.012;2023-07-29T10:00:53;11.98;;;10.60;;
20857;SDS011;10589;53.636;10.012;2023-07-29T10:03:20;10.70;;;9.60;;
20857;SDS011;10589;53.636;10.012;2023-07-29T10:05:46;10.98;;;9.38;;
20857;SDS011;10589;53.636;10.012;2023-07-29T10:08:12;10.75;;;8.02;;
20857;SDS011;10589;53.636;10.012;2023-07-29T10:10:41;7.75;;;6.93;;
20857;SDS011;10589;53.636;10.012;2023-07-29T10:13:09;8.02;;;7.22;;
20857;SDS011;10589;53.636;10.012;2023-07-29T10:15:35;6.00;;;5.50;;
20857;SDS011;10589;53.636;10.012;2023-07-29T10:18:01;6.85;;;6.25;;
20857;SDS011;10589;53.636;10.012;2023-07-29T10:20:28;5.60;;;5.05;;
20857;SDS011;10589;53.636;10.012;2023-07-29T10:22:55;6.85;;;5.43;;
20857;SDS011;10589;53.636;10.012;2023-07-29T10:25:23;6.50;;;5.90;;
20857;SDS011;10589;53.636;10.012;2023-07-29T10:27:55;8.27;;;5.45;;
20857;SDS011;10589;53.636;10.012;2023-07-29T10:30:22;6.07;;;5.45;;
20857;SDS011;10589;53.636;10.012;2023-07-29T10:32:49;5.47;;;4.97;;
20857;SDS011;10589;53.636;10.012;2023-07-29T10:35:17;4.90;;;4.35;;
20857;SDS011;10589;53.636;10.012;2023-07-29T10:37:43;5.05;;;4.55;;
20857;SDS011;10589;53.636;10.012;2023-07-29T10:40:10;4.72;;;4.07;;
20857;SDS011;10589;53.636;10.012;2023-07-29T10:42:37;3.97;;;3.67;;
20857;SDS011;10589;53.636;10.012;2023-07-29T10:45:24;5.10;;;3.97;;
20857;SDS011;10589;53.636;10.012;2023-07-29T10:47:49;4.05;;;3.65;;
20857;SDS011;10589;53.636;10.012;2023-07-29T10:50:19;5.80;;;4.10;;
20857;SDS011;10589;53.636;10.012;2023-07-29T10:52:48;4.68;;;3.92;;
20857;SDS011;10589;53.636;10.012;2023-07-29T10:55:23;5.07;;;3.25;;
20857;SDS011;10589;53.636;10.012;2023-07-29T10:57:51;4.50;;;4.10;;
20857;SDS011;10589;53.636;10.012;2023-07-29T11:00:19;4.25;;;3.55;;
20857;SDS011;10589;53.636;10.012;2023-07-29T11:02:56;4.38;;;3.97;;
20857;SDS011;10589;53.636;10.012;2023-07-29T11:05:27;4.00;;;3.70;;
20857;SDS011;10589;53.636;10.012;2023-07-29T11:08:21;4.18;;;3.78;;
20857;SDS011;10589;53.636;10.012;2023-07-29T11:11:04;3.58;;;3.20;;
20857;SDS011;10589;53.636;10.012;2023-07-29T11:13:32;7.22;;;3.50;;
20857;SDS011;10589;53.636;10.012;2023-07-29T11:16:00;4.93;;;2.70;;
20857;SDS011;10589;53.636;10.012;2023-07-29T11:18:27;3.53;;;2.70;;
20857;SDS011;10589;53.636;10.012;2023-07-29T11:20:54;2.42;;;2.22;;
20857;SDS011;10589;53.636;10.012;2023-07-29T11:23:21;2.28;;;1.67;;
20857;SDS011;10589;53.636;10.012;2023-07-29T11:25:56;1.70;;;1.60;;
20857;SDS011;10589;53.636;10.012;2023-07-29T11:28:22;4.70;;;2.20;;
20857;SDS011;10589;53.636;10.012;2023-07-29T11:30:47;2.08;;;1.67;;
20857;SDS011;10589;53.636;10.012;2023-07-29T11:33:17;3.15;;;1.80;;
20857;SDS011;10589;53.636;10.012;2023-07-29T11:35:44;4.47;;;1.73;;
20857;SDS011;10589;53.636;10.012;2023-07-29T11:38:14;2.15;;;1.80;;
20857;SDS011;10589;53.636;10.012;2023-07-29T11:40:53;2.42;;;1.75;;
20857;SDS011;10589;53.636;10.012;2023-07-29T11:43:23;2.70;;;1.75;;
20857;SDS011;10589;53.636;10.012;2023-07-29T11:45:49;3.80;;;1.88;;
20857;SDS011;10589;53.636;10.012;2023-07-29T11:48:14;2.70;;;2.25;;
20857;SDS011;10589;53.636;10.012;2023-07-29T11:50:40;2.30;;;2.08;;
20857;SDS011;10589;53.636;10.012;2023-07-29T11:53:06;3.90;;;2.20;;
20857;SDS011;10589;53.636;10.012;2023-07-29T11:55:31;2.53;;;1.88;;
20857;SDS011;10589;53.636;10.012;2023-07-29T11:57:58;4.22;;;1.88;;
20857;SDS011;10589;53.636;10.012;2023-07-29T12:00:26;1.67;;;1.48;;
20857;SDS011;10589;53.636;10.012;2023-07-29T12:02:52;1.80;;;1.70;;
20857;SDS011;10589;53.636;10.012;2023-07-29T12:05:18;3.92;;;2.00;;
20857;SDS011;10589;53.636;10.012;2023-07-29T12:07:47;2.20;;;2.00;;
20857;SDS011;10589;53.636;10.012;2023-07-29T12:10:13;2.95;;;2.00;;
20857;SDS011;10589;53.636;10.012;2023-07-29T12:12:48;2.90;;;1.75;;
20857;SDS011;10589;53.636;10.012;2023-07-29T12:15:27;2.00;;;1.80;;
20857;SDS011;10589;53.636;10.012;2023-07-29T12:17:57;4.38;;;2.05;;
20857;SDS011;10589;53.636;10.012;2023-07-29T12:20:24;2.10;;;1.90;;
20857;SDS011;10589;53.636;10.012;2023-07-29T12:25:20;1.85;;;1.55;;
20857;SDS011;10589;53.636;10.012;2023-07-29T12:27:46;3.85;;;1.65;;
20857;SDS011;10589;53.636;10.012;2023-07-29T12:30:12;3.38;;;1.50;;
20857;SDS011;10589;53.636;10.012;2023-07-29T12:32:44;1.60;;;1.50;;
20857;SDS011;10589;53.636;10.012;2023-07-29T12:35:11;1.65;;;1.55;;
20857;SDS011;10589;53.636;10.012;2023-07-29T12:37:37;2.22;;;1.40;;
20857;SDS011;10589;53.636;10.012;2023-07-29T12:40:04;2.58;;;1.58;;
20857;SDS011;10589;53.636;10.012;2023-07-29T12:42:30;1.42;;;1.30;;
20857;SDS011;10589;53.636;10.012;2023-07-29T12:44:55;1.55;;;1.45;;
20857;SDS011;10589;53.636;10.012;2023-07-29T12:47:21;1.48;;;1.38;;
20857;SDS011;10589;53.636;10.012;2023-07-29T12:49:46;1.10;;;1.00;;
20857;SDS011;10589;53.636;10.012;2023-07-29T12:52:12;1.40;;;1.00;;
20857;SDS011;10589;53.636;10.012;2023-07-29T12:54:38;1.25;;;1.00;;
20857;SDS011;10589;53.636;10.012;2023-07-29T12:57:05;1.13;;;0.98;;
20857;SDS011;10589;53.636;10.012;2023-07-29T12:59:31;1.67;;;0.80;;
20857;SDS011;10589;53.636;10.012;2023-07-29T13:01:57;1.60;;;0.85;;
20857;SDS011;10589;53.636;10.012;2023-07-29T13:04:22;1.70;;;1.08;;
20857;SDS011;10589;53.636;10.012;2023-07-29T13:06:48;1.75;;;1.08;;
20857;SDS011;10589;53.636;10.012;2023-07-29T13:09:13;1.65;;;0.90;;
20857;SDS011;10589;53.636;10.012;2023-07-29T13:11:39;2.13;;;1.10;;
20857;SDS011;10589;53.636;10.012;2023-07-29T13:14:04;1.10;;;1.00;;
20857;SDS011;10589;53.636;10.012;2023-07-29T13:16:30;1.10;;;1.00;;
20857;SDS011;10589;53.636;10.012;2023-07-29T13:18:56;1.17;;;1.08;;
20857;SDS011;10589;53.636;10.012;2023-07-29T13:21:22;1.35;;;1.25;;
20857;SDS011;10589;53.636;10.012;2023-07-29T13:23:48;2.42;;;1.17;;
20857;SDS011;10589;53.636;10.012;2023-07-29T13:26:14;1.73;;;1.00;;
20857;SDS011;10589;53.636;10.012;2023-07-29T13:28:40;1.65;;;1.17;;
20857;SDS011;10589;53.636;10.012;2023-07-29T13:31:05;1.65;;;0.95;;
20857;SDS011;10589;53.636;10.012;2023-07-29T13:33:31;1.48;;;1.38;;
20857;SDS011;10589;53.636;10.012;2023-07-29T13:35:59;1.20;;;1.00;;
20857;SDS011;10589;53.636;10.012;2023-07-29T13:38:25;1.20;;;1.10;;
20857;SDS011;10589;53.636;10.012;2023-07-29T13:40:50;1.20;;;1.10;;
20857;SDS011;10589;53.636;10.012;2023-07-29T13:43:16;2.10;;;1.10;;
20857;SDS011;10589;53.636;10.012;2023-07-29T13:45:42;3.65;;;1.17;;
20857;SDS011;10589;53.636;10.012;2023-07-29T13:48:07;2.47;;;1.15;;
20857;SDS011;10589;53.636;10.012;2023-07-29T13:50:33;1.83;;;0.90;;
20857;SDS011;10589;53.636;10.012;2023-07-29T13:52:58;1.48;;;0.98;;
20857;SDS011;10589;53.636;10.012;2023-07-29T13:55:24;1.60;;;1.27;;
20857;SDS011;10589;53.636;10.012;2023-07-29T13:57:50;2.75;;;1.20;;
20857;SDS011;10589;53.636;10.012;2023-07-29T14:00:17;1.00;;;0.90;;
20857;SDS011;10589;53.636;10.012;2023-07-29T14:02:42;2.83;;;1.20;;
20857;SDS011;10589;53.636;10.012;2023-07-29T14:05:08;2.13;;;1.20;;
20857;SDS011;10589;53.636;10.012;2023-07-29T14:07:34;2.28;;;1.10;;
20857;SDS011;10589;53.636;10.012;2023-07-29T14:10:00;1.45;;;1.10;;
20857;SDS011;10589;53.636;10.012;2023-07-29T14:12:25;1.67;;;1.15;;
20857;SDS011;10589;53.636;10.012;2023-07-29T14:14:51;2.33;;;1.05;;
20857;SDS011;10589;53.636;10.012;2023-07-29T14:17:16;5.57;;;1.20;;
20857;SDS011;10589;53.636;10.012;2023-07-29T14:19:42;1.63;;;1.10;;
20857;SDS011;10589;53.636;10.012;2023-07-29T14:22:07;4.30;;;0.98;;
20857;SDS011;10589;53.636;10.012;2023-07-29T14:24:33;1.35;;;1.08;;
20857;SDS011;10589;53.636;10.012;2023-07-29T14:26:59;1.25;;;0.90;;
20857;SDS011;10589;53.636;10.012;2023-07-29T14:29:25;2.85;;;0.90;;
20857;SDS011;10589;53.636;10.012;2023-07-29T14:31:50;3.20;;;1.00;;
20857;SDS011;10589;53.636;10.012;2023-07-29T14:34:16;1.13;;;0.90;;
20857;SDS011;10589;53.636;10.012;2023-07-29T14:36:42;1.33;;;0.90;;
20857;SDS011;10589;53.636;10.012;2023-07-29T14:39:07;1.20;;;1.00;;
20857;SDS011;10589;53.636;10.012;2023-07-29T14:41:33;1.15;;;0.90;;
20857;SDS011;10589;53.636;10.012;2023-07-29T14:43:59;2.75;;;1.00;;
20857;SDS011;10589;53.636;10.012;2023-07-29T14:46:25;2.17;;;0.90;;
20857;SDS011;10589;53.636;10.012;2023-07-29T14:48:50;1.40;;;0.90;;
20857;SDS011;10589;53.636;10.012;2023-07-29T14:51:16;1.38;;;0.75;;
20857;SDS011;10589;53.636;10.012;2023-07-29T14:53:41;1.50;;;1.08;;
20857;SDS011;10589;53.636;10.012;2023-07-29T14:56:08;1.10;;;1.00;;
20857;SDS011;10589;53.636;10.012;2023-07-29T14:58:33;4.28;;;1.30;;
20857;SDS011;10589;53.636;10.012;2023-07-29T15:00:59;1.73;;;1.10;;
20857;SDS011;10589;53.636;10.012;2023-07-29T15:03:24;3.42;;;1.25;;
20857;SDS011;10589;53.636;10.012;2023-07-29T15:05:50;1.98;;;1.17;;
20857;SDS011;10589;53.636;10.012;2023-07-29T15:08:16;2.65;;;1.00;;
20857;SDS011;10589;53.636;10.012;2023-07-29T15:10:49;1.20;;;1.10;;
20857;SDS011;10589;53.636;10.012;2023-07-29T15:13:15;2.65;;;1.02;;
20857;SDS011;10589;53.636;10.012;2023-07-29T15:15:41;1.50;;;0.82;;
20857;SDS011;10589;53.636;10.012;2023-07-29T15:18:08;1.70;;;0.80;;
20857;SDS011;10589;53.636;10.012;2023-07-29T15:20:33;1.27;;;0.80;;
20857;SDS011;10589;53.636;10.012;2023-07-29T15:22:59;1.90;;;0.82;;
20857;SDS011;10589;53.636;10.012;2023-07-29T15:25:25;4.78;;;1.10;;
20857;SDS011;10589;53.636;10.012;2023-07-29T15:27:50;3.13;;;1.00;;
20857;SDS011;10589;53.636;10.012;2023-07-29T15:30:16;1.45;;;0.90;;
20857;SDS011;10589;53.636;10.012;2023-07-29T15:32:41;1.58;;;1.02;;
20857;SDS011;10589;53.636;10.012;2023-07-29T15:35:07;2.38;;;1.00;;
20857;SDS011;10589;53.636;10.012;2023-07-29T15:37:33;1.60;;;1.00;;
20857;SDS011;10589;53.636;10.012;2023-07-29T15:39:59;1.58;;;1.10;;
20857;SDS011;10589;53.636;10.012;2023-07-29T15:42:24;2.13;;;1.20;;
20857;SDS011;10589;53.636;10.012;2023-07-29T15:44:50;1.70;;;1.00;;
20857;SDS011;10589;53.636;10.012;2023-07-29T15:47:16;3.72;;;1.50;;
20857;SDS011;10589;53.636;10.012;2023-07-29T15:49:43;2.28;;;1.17;;
20857;SDS011;10589;53.636;10.012;2023-07-29T15:52:09;1.50;;;0.90;;
20857;SDS011;10589;53.636;10.012;2023-07-29T15:54:36;2.88;;;1.10;;
20857;SDS011;10589;53.636;10.012;2023-07-29T15:57:02;1.52;;;1.17;;
20857;SDS011;10589;53.636;10.012;2023-07-29T15:59:28;2.63;;;1.50;;
20857;SDS011;10589;53.636;10.012;2023-07-29T16:01:54;2.30;;;1.27;;
20857;SDS011;10589;53.636;10.012;2023-07-29T16:04:20;2.42;;;1.50;;
20857;SDS011;10589;53.636;10.012;2023-07-29T16:06:46;3.35;;;1.40;;
20857;SDS011;10589;53.636;10.012;2023-07-29T16:09:11;1.83;;;1.60;;
20857;SDS011;10589;53.636;10.012;2023-07-29T16:11:37;2.53;;;1.42;;
20857;SDS011;10589;53.636;10.012;2023-07-29T16:14:02;2.83;;;1.70;;
20857;SDS011;10589;53.636;10.012;2023-07-29T16:16:28;3.45;;;1.52;;
20857;SDS011;10589;53.636;10.012;2023-07-29T16:18:54;2.50;;;1.33;;
20857;SDS011;10589;53.636;10.012;2023-07-29T16:21:19;3.25;;;0.90;;
20857;SDS011;10589;53.636;10.012;2023-07-29T16:23:45;1.65;;;0.80;;
20857;SDS011;10589;53.636;10.012;2023-07-29T16:26:11;1.33;;;0.80;;
20857;SDS011;10589;53.636;10.012;2023-07-29T16:28:37;1.38;;;1.08;;
20857;SDS011;10589;53.636;10.012;2023-07-29T16:31:03;2.70;;;0.90;;
20857;SDS011;10589;53.636;10.012;2023-07-29T16:33:28;2.72;;;1.08;;
20857;SDS011;10589;53.636;10.012;2023-07-29T16:35:54;1.63;;;0.80;;
20857;SDS011;10589;53.636;10.012;2023-07-29T16:38:19;4.85;;;1.30;;
20857;SDS011;10589;53.636;10.012;2023-07-29T16:40:45;0.90;;;0.77;;
20857;SDS011;10589;53.636;10.012;2023-07-29T16:43:11;1.65;;;1.02;;
20857;SDS011;10589;53.636;10.012;2023-07-29T16:45:37;4.22;;;1.30;;
20857;SDS011;10589;53.636;10.012;2023-07-29T16:48:02;1.77;;;1.40;;
20857;SDS011;10589;53.636;10.012;2023-07-29T16:50:28;2.90;;;1.40;;
20857;SDS011;10589;53.636;10.012;2023-07-29T16:52:54;2.72;;;1.20;;
20857;SDS011;10589;53.636;10.012;2023-07-29T16:55:21;2.92;;;1.27;;
20857;SDS011;10589;53.636;10.012;2023-07-29T16:57:47;1.90;;;1.35;;
20857;SDS011;10589;53.636;10.012;2023-07-29T17:00:13;2.08;;;1.50;;
20857;SDS011;10589;53.636;10.012;2023-07-29T17:02:39;1.77;;;1.30;;
20857;SDS011;10589;53.636;10.012;2023-07-29T17:05:05;2.13;;;1.30;;
20857;SDS011;10589;53.636;10.012;2023-07-29T17:07:32;2.30;;;1.38;;
20857;SDS011;10589;53.636;10.012;2023-07-29T17:09:58;2.97;;;1.77;;
20857;SDS011;10589;53.636;10.012;2023-07-29T17:12:23;2.05;;;1.50;;
20857;SDS011;10589;53.636;10.012;2023-07-29T17:14:49;1.67;;;1.10;;
20857;SDS011;10589;53.636;10.012;2023-07-29T17:17:15;1.50;;;1.08;;
20857;SDS011;10589;53.636;10.012;2023-07-29T17:19:40;2.08;;;1.75;;
20857;SDS011;10589;53.636;10.012;2023-07-29T17:22:06;2.00;;;1.08;;
20857;SDS011;10589;53.636;10.012;2023-07-29T17:24:32;2.20;;;1.05;;
20857;SDS011;10589;53.636;10.012;2023-07-29T17:26:58;2.45;;;1.20;;
20857;SDS011;10589;53.636;10.012;2023-07-29T17:29:24;2.55;;;1.52;;
20857;SDS011;10589;53.636;10.012;2023-07-29T17:31:50;3.60;;;1.63;;
20857;SDS011;10589;53.636;10.012;2023-07-29T17:34:16;3.63;;;1.73;;
20857;SDS011;10589;53.636;10.012;2023-07-29T17:36:41;2.40;;;1.20;;
20857;SDS011;10589;53.636;10.012;2023-07-29T17:39:07;1.98;;;1.20;;
20857;SDS011;10589;53.636;10.012;2023-07-29T17:41:33;1.85;;;1.33;;
20857;SDS011;10589;53.636;10.012;2023-07-29T17:43:58;2.45;;;1.38;;
20857;SDS011;10589;53.636;10.012;2023-07-29T17:46:24;2.45;;;1.35;;
20857;SDS011;10589;53.636;10.012;2023-07-29T17:48:50;2.60;;;1.40;;
20857;SDS011;10589;53.636;10.012;2023-07-29T17:51:15;2.67;;;1.70;;
20857;SDS011;10589;53.636;10.012;2023-07-29T17:53:41;1.95;;;1.45;;
20857;SDS011;10589;53.636;10.012;2023-07-29T17:56:07;2.50;;;1.58;;
20857;SDS011;10589;53.636;10.012;2023-07-29T17:58:35;3.28;;;1.60;;
20857;SDS011;10589;53.636;10.012;2023-07-29T18:01:04;3.67;;;1.90;;
20857;SDS011;10589;53.636;10.012;2023-07-29T18:03:30;5.25;;;2.00;;
20857;SDS011;10589;53.636;10.012;2023-07-29T18:05:56;4.72;;;1.70;;
20857;SDS011;10589;53.636;10.012;2023-07-29T18:08:21;4.00;;;2.08;;